createdAt,value
2022-11-07T00:01:09.362Z,85.44
2022-11-07T00:06:55.493Z,86.23
2022-11-07T00:09:27.834Z,86.09
2022-11-07T00:12:00.013Z,86.10
2022-11-07T00:14:32.165Z,86.12
2022-11-07T00:17:04.319Z,86.39
2022-11-07T00:19:36.466Z,86.51
2022-11-07T00:22:08.773Z,86.75
2022-11-07T00:24:42.007Z,86.72
2022-11-07T00:27:15.646Z,86.62
2022-11-07T00:29:48.076Z,86.74
2022-11-07T00:32:22.189Z,86.81
2022-11-07T00:34:54.288Z,87.36
2022-11-07T00:37:27.434Z,86.99
2022-11-07T00:39:59.430Z,86.81
2022-11-07T00:42:31.556Z,87.25
2022-11-07T00:45:04.108Z,87.11
2022-11-07T00:47:37.479Z,86.88
2022-11-07T00:50:11.139Z,87.76
2022-11-07T00:52:43.158Z,87.79
2022-11-07T00:55:15.254Z,87.53
2022-11-07T00:57:47.820Z,87.70
2022-11-07T01:00:20.242Z,87.78
2022-11-07T01:03:17.445Z,87.63
2022-11-07T01:05:59.662Z,88.15
2022-11-07T01:08:32.836Z,88.08
2022-11-07T01:11:07.722Z,88.51
2022-11-07T01:13:40.779Z,88.35
2022-11-07T01:16:13.433Z,88.28
2022-11-07T01:18:45.467Z,88.41
2022-11-07T01:21:17.502Z,88.39
2022-11-07T01:23:49.691Z,88.76
2022-11-07T01:26:22.176Z,88.52
2022-11-07T01:28:55.887Z,88.37
2022-11-07T01:31:27.943Z,88.85
2022-11-07T01:34:02.785Z,88.74
2022-11-07T01:36:36.534Z,88.65
2022-11-07T01:39:08.927Z,88.98
2022-11-07T01:41:42.425Z,88.94
2022-11-07T01:45:02.957Z,89.15
2022-11-07T01:47:39.721Z,89.02
2022-11-07T01:50:12.471Z,89.48
2022-11-07T01:52:48.744Z,89.30
2022-11-07T01:55:25.935Z,89.58
2022-11-07T01:58:01.766Z,89.52
2022-11-07T02:00:35.520Z,89.53
2022-11-07T02:03:11.212Z,89.29
2022-11-07T02:05:48.211Z,89.69
2022-11-07T02:08:21.211Z,89.74
2022-11-07T02:10:54.221Z,89.78
2022-11-07T02:13:28.916Z,89.88
2022-11-07T02:16:03.389Z,89.96
2022-11-07T02:18:38.161Z,90.04
2022-11-07T02:21:17.156Z,90.38
2022-11-07T02:23:56.212Z,90.48
2022-11-07T02:26:28.976Z,90.29
2022-11-07T02:29:03.306Z,90.46
2022-11-07T02:31:35.467Z,90.76
2022-11-07T02:34:13.944Z,90.97
2022-11-07T02:36:46.003Z,90.43
2022-11-07T02:39:18.043Z,90.82
2022-11-07T02:41:51.525Z,91.00
2022-11-07T02:44:25.542Z,91.18
2022-11-07T02:46:58.371Z,91.01
2022-11-07T02:49:30.452Z,91.13
2022-11-07T02:52:03.787Z,90.83
2022-11-07T02:54:36.367Z,90.92
2022-11-07T02:57:08.459Z,90.97
2022-11-07T02:59:40.638Z,91.28
2022-11-07T03:02:13.337Z,91.20
2022-11-07T03:04:50.774Z,91.15
2022-11-07T03:07:22.944Z,91.06
2022-11-07T03:09:55.150Z,91.02
2022-11-07T03:12:27.578Z,91.00
2022-11-07T03:15:00.065Z,91.08
2022-11-07T03:17:32.371Z,90.95
2022-11-07T03:20:05.130Z,91.14
2022-11-07T03:22:37.608Z,91.07
2022-11-07T03:25:10.468Z,91.02
2022-11-07T03:27:50.010Z,91.25
2022-11-07T03:30:22.699Z,91.13
2022-11-07T03:32:56.735Z,91.35
2022-11-07T03:35:29.048Z,91.31
2022-11-07T03:38:01.220Z,91.25
2022-11-07T03:40:36.103Z,91.17
2022-11-07T03:43:08.282Z,91.12
2022-11-07T03:45:43.448Z,91.03
2022-11-07T03:48:17.072Z,91.30
2022-11-07T03:50:49.157Z,91.32
2022-11-07T03:53:25.353Z,91.80
2022-11-07T03:55:58.651Z,91.85
2022-11-07T03:58:30.875Z,92.23
2022-11-07T04:01:03.752Z,92.56
2022-11-07T04:03:36.195Z,92.97
2022-11-07T04:06:08.967Z,92.90
2022-11-07T04:08:41.243Z,92.81
2022-11-07T04:11:34.613Z,93.00
2022-11-07T04:14:24.777Z,93.19
2022-11-07T04:17:14.807Z,92.92
2022-11-07T04:19:46.913Z,92.76
2022-11-07T04:22:19.752Z,92.69
2022-11-07T04:24:51.964Z,92.68
2022-11-07T04:27:41.723Z,92.62
2022-11-07T04:30:20.202Z,92.69
2022-11-07T04:32:54.132Z,93.47
2022-11-07T04:35:28.283Z,93.32
2022-11-07T04:38:03.632Z,93.00
2022-11-07T04:40:38.820Z,93.12
2022-11-07T04:43:13.417Z,92.60
2022-11-07T04:45:46.162Z,92.93
2022-11-07T04:48:19.214Z,92.85
2022-11-07T04:50:51.984Z,92.83
2022-11-07T04:53:24.337Z,92.96
2022-11-07T04:55:56.440Z,92.96
2022-11-07T04:58:28.981Z,92.71
2022-11-07T05:01:01.568Z,92.95
2022-11-07T05:03:38.859Z,93.16
2022-11-07T05:06:15.893Z,92.92
2022-11-07T05:08:50.977Z,92.66
2022-11-07T05:11:26.633Z,92.42
2022-11-07T05:13:58.837Z,92.20
2022-11-07T05:16:32.389Z,92.22
2022-11-07T05:19:04.981Z,92.48
2022-11-07T05:21:37.062Z,92.94
2022-11-07T05:24:15.357Z,92.63
2022-11-07T05:26:47.972Z,92.41
2022-11-07T05:29:20.029Z,92.40
2022-11-07T05:31:54.365Z,92.97
2022-11-07T05:34:26.538Z,93.56
2022-11-07T05:36:58.728Z,93.97
2022-11-07T05:39:33.872Z,94.14
2022-11-07T05:42:06.923Z,94.28
2022-11-07T05:44:39.037Z,94.07
2022-11-07T05:47:13.712Z,94.15
2022-11-07T05:49:45.868Z,94.46
2022-11-07T05:52:17.982Z,94.44
2022-11-07T05:54:50.066Z,94.35
2022-11-07T05:57:22.098Z,94.34
2022-11-07T05:59:55.262Z,94.44
2022-11-07T06:02:27.564Z,94.61
2022-11-07T06:04:59.743Z,94.84
2022-11-07T06:07:34.201Z,95.01
2022-11-07T06:10:07.511Z,95.16
2022-11-07T06:12:39.594Z,95.11
2022-11-07T06:15:12.873Z,95.09
2022-11-07T06:17:44.958Z,94.93
2022-11-07T06:20:17.488Z,95.06
2022-11-07T06:22:49.585Z,95.12
2022-11-07T06:25:24.602Z,95.06
2022-11-07T06:27:59.765Z,95.08
2022-11-07T06:30:32.131Z,94.99
2022-11-07T06:33:05.911Z,95.42
2022-11-07T06:35:39.122Z,95.18
2022-11-07T06:38:13.015Z,95.26
2022-11-07T06:40:45.669Z,95.50
2022-11-07T06:43:21.642Z,95.67
2022-11-07T06:45:53.654Z,95.87
2022-11-07T06:48:25.662Z,95.50
2022-11-07T06:51:01.880Z,95.57
2022-11-07T06:53:34.879Z,95.46
2022-11-07T06:56:10.015Z,95.67
2022-11-07T06:58:42.612Z,95.70
2022-11-07T07:01:16.489Z,95.34
2022-11-07T07:03:48.654Z,95.22
2022-11-07T07:06:20.846Z,95.17
2022-11-07T07:08:53.016Z,95.00
2022-11-07T07:11:25.098Z,94.89
2022-11-07T07:14:01.931Z,94.78
2022-11-07T07:16:35.504Z,94.48
2022-11-07T07:19:07.843Z,94.56
2022-11-07T07:21:40.006Z,94.18
2022-11-07T07:24:12.131Z,93.89
2022-11-07T07:26:44.093Z,93.68
2022-11-07T07:29:18.872Z,93.63
2022-11-07T07:31:51.243Z,93.45
2022-11-07T07:34:23.374Z,93.02
2022-11-07T07:36:57.898Z,92.82
2022-11-07T07:39:30.977Z,92.61
2022-11-07T07:46:56.141Z,92.24
2022-11-07T07:49:34.835Z,92.15
2022-11-07T07:52:07.631Z,92.03
2022-11-07T07:54:45.974Z,91.77
2022-11-07T07:57:18.173Z,91.57
2022-11-07T07:59:56.879Z,91.40
2022-11-07T08:07:10.906Z,90.68
2022-11-07T08:09:43.160Z,90.36
2022-11-07T08:12:21.816Z,90.17
2022-11-07T08:14:53.959Z,90.28
2022-11-07T08:17:32.897Z,90.18
2022-11-07T08:20:05.395Z,90.24
2022-11-07T08:22:44.305Z,90.10
2022-11-07T08:30:17.618Z,89.09
2022-11-07T08:37:56.691Z,87.99
2022-11-07T08:40:29.151Z,87.64
2022-11-07T08:43:47.588Z,87.52
2022-11-07T08:46:19.879Z,87.25
2022-11-07T08:48:51.988Z,87.22
2022-11-07T08:51:30.902Z,86.95
2022-11-07T08:54:03.072Z,86.74
2022-11-07T08:56:41.942Z,86.39
2022-11-07T08:59:15.219Z,86.38
2022-11-07T09:02:39.123Z,85.67
2022-11-07T09:10:26.052Z,86.11
2022-11-07T09:13:05.819Z,86.00
2022-11-07T09:15:38.217Z,85.76
2022-11-07T09:18:16.918Z,86.13
2022-11-07T09:20:50.529Z,85.92
2022-11-07T09:23:29.003Z,85.93
2022-11-07T09:26:03.146Z,85.94
2022-11-07T09:28:45.629Z,86.13
2022-11-07T09:32:38.332Z,85.77
2022-11-07T09:35:52.377Z,85.69
2022-11-07T09:38:31.535Z,85.18
2022-11-07T09:45:56.238Z,84.82
2022-11-07T10:06:45.232Z,82.12
2022-11-07T10:18:57.643Z,80.72
2022-11-07T10:30:20.903Z,76.10
2022-11-07T10:42:33.882Z,71.46
2022-11-07T10:45:07.693Z,70.59
2022-11-07T10:57:14.932Z,62.82
2022-11-07T11:04:26.043Z,60.47
2022-11-07T11:15:20.812Z,57.83
2022-11-07T11:22:57.941Z,57.50
2022-11-07T11:30:43.340Z,57.12
2022-11-07T11:33:28.777Z,57.02
2022-11-07T11:52:25.965Z,55.23
2022-11-07T12:00:20.228Z,54.29
2022-11-07T12:12:57.012Z,53.87
2022-11-07T12:25:36.793Z,53.21
2022-11-07T12:28:34.048Z,52.56
2022-11-07T12:31:18.693Z,51.51
2022-11-07T12:34:00.469Z,52.25
2022-11-07T12:36:47.129Z,52.48
2022-11-07T12:39:45.815Z,52.79
2022-11-07T12:42:29.213Z,52.71
2022-11-07T12:45:12.685Z,52.66
2022-11-07T12:48:13.030Z,53.10
2022-11-07T12:50:51.879Z,53.60
2022-11-07T12:53:43.104Z,53.98
2022-11-07T12:56:18.753Z,54.74
2022-11-07T12:58:52.394Z,55.16
2022-11-07T13:01:30.163Z,55.11
2022-11-07T13:04:12.171Z,55.11
2022-11-07T13:06:51.001Z,55.29
2022-11-07T13:09:30.043Z,55.61
2022-11-07T13:12:08.235Z,55.95
2022-11-07T13:14:45.526Z,56.12
2022-11-07T13:17:21.037Z,56.42
2022-11-07T13:20:03.780Z,56.65
2022-11-07T13:22:38.599Z,56.80
2022-11-07T13:25:28.033Z,57.06
2022-11-07T13:28:27.888Z,57.45
2022-11-07T13:31:06.696Z,57.87
2022-11-07T13:33:40.430Z,58.12
2022-11-07T13:36:25.095Z,58.47
2022-11-07T13:38:59.997Z,58.50
2022-11-07T13:41:32.332Z,58.88
2022-11-07T13:44:07.272Z,59.13
2022-11-07T13:46:44.504Z,59.40
2022-11-07T13:49:21.926Z,60.01
2022-11-07T13:51:56.664Z,59.89
2022-11-07T13:59:41.426Z,60.59
2022-11-07T14:02:21.607Z,60.99
2022-11-07T14:05:15.168Z,61.19
2022-11-07T14:07:59.433Z,61.20
2022-11-07T14:10:34.910Z,61.43
2022-11-07T14:17:17.170Z,61.82
2022-11-07T14:21:11.249Z,62.09
2022-11-07T14:28:22.517Z,63.25
2022-11-07T14:30:55.245Z,63.63
2022-11-07T14:33:27.446Z,63.55
2022-11-07T14:36:08.345Z,63.83
2022-11-07T14:43:34.622Z,64.23
2022-11-07T14:46:26.742Z,64.54
2022-11-07T14:48:59.092Z,64.80
2022-11-07T15:00:57.318Z,65.62
2022-11-07T15:03:36.509Z,65.72
2022-11-07T15:10:00.417Z,66.11
2022-11-07T15:12:37.835Z,66.23
2022-11-07T15:15:23.336Z,66.20
2022-11-07T15:17:58.822Z,66.16
2022-11-07T15:20:40.326Z,66.40
2022-11-07T15:23:30.356Z,66.61
2022-11-07T15:26:11.323Z,66.60
2022-11-07T15:28:51.388Z,66.72
2022-11-07T15:31:25.980Z,66.68
2022-11-07T15:33:59.400Z,66.75
2022-11-07T15:36:37.337Z,66.79
2022-11-07T15:39:16.081Z,67.01
2022-11-07T15:41:48.284Z,67.02
2022-11-07T15:44:20.375Z,67.47
2022-11-07T15:46:52.592Z,67.35
2022-11-07T15:49:26.040Z,67.45
2022-11-07T15:51:58.258Z,67.59
2022-11-07T15:54:30.822Z,67.72
2022-11-07T15:57:08.377Z,67.81
2022-11-07T15:59:40.577Z,68.03
2022-11-07T16:02:16.953Z,68.20
2022-11-07T16:04:49.174Z,68.98
2022-11-07T16:07:22.758Z,69.25
2022-11-07T16:09:55.284Z,69.20
2022-11-07T16:12:27.548Z,69.64
2022-11-07T16:15:00.354Z,70.02
2022-11-07T16:17:33.372Z,70.09
2022-11-07T16:20:06.035Z,70.21
2022-11-07T16:22:38.116Z,70.15
2022-11-07T16:25:21.179Z,70.43
2022-11-07T16:27:56.899Z,70.68
2022-11-07T16:30:29.520Z,70.92
2022-11-07T16:33:01.971Z,71.29
2022-11-07T16:35:34.153Z,71.48
2022-11-07T16:38:12.509Z,71.80
2022-11-07T16:40:45.122Z,71.92
2022-11-07T16:44:07.472Z,72.20
2022-11-07T16:51:18.516Z,73.14
2022-11-07T16:54:39.606Z,73.27
2022-11-07T16:57:19.702Z,73.31
2022-11-07T16:59:52.766Z,73.62
2022-11-07T17:11:34.130Z,74.00
2022-11-07T17:14:06.346Z,74.18
2022-11-07T17:26:14.368Z,74.59
2022-11-07T17:29:35.677Z,74.78
2022-11-07T17:32:14.929Z,74.81
2022-11-07T17:39:41.882Z,75.22
2022-11-07T17:42:15.150Z,75.54
2022-11-07T17:44:53.742Z,75.93
2022-11-07T17:51:48.372Z,76.09
2022-11-07T18:03:07.941Z,76.55
2022-11-07T18:05:40.225Z,77.17
2022-11-07T18:08:31.599Z,77.34
2022-11-07T18:11:59.974Z,77.87
2022-11-07T18:14:39.316Z,77.76
2022-11-07T18:22:03.798Z,78.38
2022-11-07T18:33:05.314Z,78.73
2022-11-07T18:35:44.660Z,78.86
2022-11-07T18:38:17.264Z,78.82
2022-11-07T18:49:34.763Z,79.44
2022-11-07T18:52:13.791Z,79.69
2022-11-07T18:59:17.379Z,80.66
2022-11-07T19:01:54.283Z,80.37
2022-11-07T19:04:26.420Z,80.47
2022-11-07T19:07:05.875Z,80.78
2022-11-07T19:09:38.261Z,81.10
2022-11-07T19:12:16.777Z,80.81
2022-11-07T19:14:48.868Z,81.11
2022-11-07T19:17:27.840Z,81.41
2022-11-07T19:24:35.191Z,80.99
2022-11-07T19:32:01.212Z,81.55
2022-11-07T19:34:39.709Z,81.40
2022-11-07T19:37:12.172Z,81.65
2022-11-07T19:39:51.761Z,81.79
2022-11-07T19:46:54.834Z,82.02
2022-11-07T19:53:35.582Z,82.20
2022-11-07T19:56:16.936Z,82.25
2022-11-07T20:03:29.326Z,82.73
2022-11-07T20:11:23.606Z,82.95
2022-11-07T20:14:03.741Z,83.28
2022-11-07T20:17:26.122Z,83.38
2022-11-07T20:20:08.426Z,83.25
2022-11-07T20:23:33.839Z,83.18
2022-11-07T20:34:53.956Z,83.86
2022-11-07T20:37:26.636Z,83.67
2022-11-07T20:39:58.680Z,83.74
2022-11-07T20:42:44.746Z,83.86
2022-11-07T20:45:17.196Z,84.15
2022-11-07T20:47:49.819Z,84.01
2022-11-07T20:50:28.807Z,84.34
2022-11-07T20:53:01.463Z,84.24
2022-11-07T20:55:43.158Z,84.36
2022-11-07T20:59:03.851Z,84.17
2022-11-07T21:01:42.985Z,84.61
2022-11-07T21:09:07.099Z,84.84
2022-11-07T21:11:46.076Z,84.71
2022-11-07T21:14:18.138Z,85.09
2022-11-07T21:16:57.491Z,84.87
2022-11-07T21:19:30.485Z,85.19
2022-11-07T21:22:08.846Z,85.27
2022-11-07T21:24:41.033Z,85.19
2022-11-07T21:27:20.023Z,85.19
2022-11-07T21:34:51.965Z,85.47
2022-11-07T21:37:47.299Z,85.61
2022-11-07T21:40:19.532Z,85.57
2022-11-07T21:42:54.883Z,85.72
2022-11-07T21:59:25.256Z,86.11
2022-11-07T22:01:58.967Z,86.24
2022-11-07T22:04:31.366Z,86.25
2022-11-07T22:11:29.781Z,86.50
2022-11-07T22:14:07.929Z,86.55
2022-11-07T22:16:40.344Z,86.66
2022-11-07T22:23:19.944Z,86.85
2022-11-07T22:25:52.132Z,86.69
2022-11-07T22:28:31.229Z,86.87
2022-11-07T22:35:32.786Z,86.88
2022-11-07T22:43:41.628Z,87.02
2022-11-07T22:46:16.579Z,87.29
2022-11-07T22:50:43.169Z,87.40
2022-11-07T22:53:22.016Z,87.50
2022-11-07T22:55:54.052Z,87.71
2022-11-07T22:58:26.323Z,87.75
2022-11-07T23:00:59.390Z,87.78
2022-11-07T23:03:31.805Z,87.86
2022-11-07T23:06:06.324Z,87.88
2022-11-07T23:08:38.642Z,88.02
2022-11-07T23:14:07.976Z,88.14
2022-11-07T23:16:41.705Z,88.14
2022-11-07T23:19:16.255Z,87.84
2022-11-07T23:21:49.038Z,88.04
2022-11-07T23:24:21.787Z,88.02
2022-11-07T23:26:53.876Z,88.19
2022-11-07T23:29:26.358Z,88.37
2022-11-07T23:31:58.392Z,88.40
2022-11-07T23:34:30.534Z,88.56
2022-11-07T23:37:03.280Z,88.47
2022-11-07T23:39:35.293Z,88.55
2022-11-07T23:42:07.428Z,88.74
2022-11-07T23:45:00.202Z,88.72
2022-11-07T23:47:50.879Z,88.69
2022-11-07T23:50:39.488Z,88.91
2022-11-07T23:53:28.517Z,89.03
2022-11-07T23:56:01.664Z,89.16
2022-11-07T23:58:51.531Z,88.96
